createdAt,value
2018-12-11T00:00:46.371Z,39393.96
2018-12-11T00:02:51.257Z,39406.52
2018-12-11T00:04:56.059Z,39350.50
2018-12-11T00:07:01.432Z,39380.44
2018-12-11T00:09:07.142Z,39370.78
2018-12-11T00:11:11.936Z,39357.26
2018-12-11T00:13:16.659Z,39366.92
2018-12-11T00:15:21.550Z,39383.34
2018-12-11T00:17:27.057Z,39334.08
2018-12-11T00:19:32.869Z,39287.72
2018-12-11T00:21:37.673Z,39367.88
2018-12-11T00:23:44.236Z,39333.12
2018-12-11T00:25:49.150Z,39324.42
2018-12-11T00:27:56.612Z,39353.40
2018-12-11T00:30:01.475Z,39336.98
2018-12-11T00:32:06.628Z,39341.81
2018-12-11T00:34:11.564Z,39332.15
2018-12-11T00:36:18.496Z,39345.67
2018-12-11T00:38:23.532Z,39323.46
2018-12-11T00:40:29.457Z,39353.40
2018-12-11T00:42:34.420Z,39328.29
2018-12-11T00:44:39.336Z,39314.77
2018-12-11T00:46:44.432Z,39324.42
2018-12-11T00:48:49.278Z,39330.22
2018-12-11T00:50:54.434Z,39344.71
2018-12-11T00:53:01.017Z,39365.95
2018-12-11T00:55:06.749Z,39315.73
2018-12-11T00:57:12.131Z,39332.15
2018-12-11T00:59:16.933Z,39358.23
2018-12-11T01:01:22.574Z,39329.25
2018-12-11T01:03:27.326Z,39319.59
2018-12-11T01:05:32.243Z,39351.46
2018-12-11T01:07:37.080Z,39340.84
2018-12-11T01:09:42.127Z,39320.56
2018-12-11T01:11:47.825Z,39369.82
2018-12-11T01:13:52.699Z,39336.98
2018-12-11T01:15:57.431Z,39343.74
2018-12-11T01:18:02.121Z,39334.08
2018-12-11T01:20:07.828Z,39388.16
2018-12-11T01:22:14.502Z,39345.67
2018-12-11T01:24:19.394Z,39331.18
2018-12-11T01:26:24.223Z,39366.92
2018-12-11T01:28:29.659Z,39368.85
2018-12-11T01:30:34.497Z,39344.71
2018-12-11T01:32:42.054Z,39360.16
2018-12-11T01:34:46.972Z,39363.05
2018-12-11T01:36:51.703Z,39336.01
2018-12-11T01:38:56.602Z,39394.93
2018-12-11T01:41:02.081Z,39369.82
2018-12-11T01:43:07.058Z,39357.26
2018-12-11T01:45:11.950Z,39372.71
2018-12-11T01:47:16.777Z,39388.16
2018-12-11T01:49:22.425Z,39380.44
2018-12-11T01:51:28.149Z,39353.40
2018-12-11T01:53:33.427Z,39359.19
2018-12-11T01:55:39.200Z,39387.20
2018-12-11T01:57:43.995Z,39378.51
2018-12-11T01:59:48.862Z,39354.36
2018-12-11T02:01:53.764Z,39361.12
2018-12-11T02:03:58.863Z,39363.05
2018-12-11T02:06:03.898Z,39349.54
2018-12-11T02:08:09.053Z,39385.27
2018-12-11T02:10:15.925Z,39334.08
2018-12-11T02:12:20.872Z,39355.33
2018-12-11T02:14:25.854Z,39324.42
2018-12-11T02:16:30.665Z,39338.91
2018-12-11T02:18:36.389Z,39342.77
2018-12-11T02:20:41.820Z,39370.78
2018-12-11T02:22:46.658Z,39353.40
2018-12-11T02:24:51.467Z,39338.91
2018-12-11T02:26:56.231Z,39368.85
2018-12-11T02:29:01.198Z,39337.95
2018-12-11T02:31:06.131Z,39330.22
2018-12-11T02:33:11.426Z,39331.18
2018-12-11T02:35:16.273Z,39315.73
2018-12-11T02:37:21.202Z,39358.23
2018-12-11T02:39:26.066Z,39347.60
2018-12-11T02:41:31.043Z,39349.54
2018-12-11T02:43:36.804Z,39351.46
2018-12-11T02:45:42.323Z,39363.05
2018-12-11T02:47:47.214Z,39357.26
2018-12-11T02:49:52.033Z,39350.50
2018-12-11T02:51:57.414Z,39331.18
2018-12-11T02:54:03.266Z,39357.26
2018-12-11T02:56:08.237Z,39338.91
2018-12-11T02:58:13.122Z,39357.26
2018-12-11T03:00:19.078Z,39341.81
2018-12-11T03:02:25.018Z,39338.91
2018-12-11T03:04:29.828Z,39359.19
2018-12-11T03:06:36.588Z,39320.56
2018-12-11T03:08:41.444Z,39339.87
2018-12-11T03:10:47.360Z,39294.48
2018-12-11T03:12:52.321Z,39348.57
2018-12-11T03:14:57.337Z,39364.02
2018-12-11T03:17:02.180Z,39300.28
2018-12-11T03:19:07.069Z,39344.71
2018-12-11T03:21:11.954Z,39352.43
2018-12-11T03:23:17.395Z,39352.43
2018-12-11T03:25:23.243Z,39327.32
2018-12-11T03:27:28.491Z,39308.97
2018-12-11T03:29:34.710Z,39330.22
2018-12-11T03:31:39.580Z,39332.15
2018-12-11T03:33:45.202Z,39307.04
2018-12-11T03:35:49.944Z,39307.04
2018-12-11T03:37:55.372Z,39323.46
2018-12-11T03:40:00.267Z,39312.84
2018-12-11T03:42:06.135Z,39286.76
2018-12-11T03:44:11.869Z,39311.87
2018-12-11T03:46:16.782Z,39300.28
2018-12-11T03:48:21.484Z,39323.46
2018-12-11T03:50:26.266Z,39295.45
2018-12-11T03:52:31.180Z,39282.89
2018-12-11T03:54:35.978Z,39292.55
2018-12-11T03:56:41.663Z,39297.38
2018-12-11T03:58:46.509Z,39298.35
2018-12-11T04:00:51.361Z,39283.86
2018-12-11T04:02:56.345Z,39272.27
2018-12-11T04:05:01.213Z,39291.59
2018-12-11T04:07:06.082Z,39297.38
2018-12-11T04:09:10.810Z,39275.17
2018-12-11T04:11:15.610Z,39297.38
2018-12-11T04:15:55.813Z,39320.56
2018-12-11T04:18:01.038Z,39283.86
2018-12-11T04:20:07.618Z,39315.73
2018-12-11T04:22:13.538Z,39296.42
2018-12-11T04:24:18.296Z,39282.89
2018-12-11T04:26:23.579Z,39280.96
2018-12-11T04:28:28.300Z,39387.20
2018-12-11T04:30:33.681Z,39289.66
2018-12-11T04:32:38.344Z,39308.01
2018-12-11T04:34:43.148Z,39279.04
2018-12-11T04:36:48.012Z,39263.58
2018-12-11T04:38:53.886Z,39252.96
2018-12-11T04:40:58.751Z,39271.31
2018-12-11T04:43:03.997Z,39248.13
2018-12-11T04:45:09.891Z,39271.31
2018-12-11T04:47:15.573Z,39232.68
2018-12-11T04:49:21.142Z,39253.93
2018-12-11T04:51:26.813Z,39271.31
2018-12-11T04:53:32.529Z,39274.20
2018-12-11T04:55:37.873Z,39289.66
2018-12-11T04:57:43.856Z,39262.62
2018-12-11T04:59:48.983Z,39263.58
2018-12-11T05:01:54.283Z,39266.48
2018-12-11T05:04:00.158Z,39249.09
2018-12-11T05:06:06.133Z,39268.41
2018-12-11T05:08:18.448Z,39289.66
2018-12-11T05:10:25.646Z,39305.11
2018-12-11T05:12:32.202Z,39310.90
2018-12-11T05:14:37.281Z,39294.48
2018-12-11T05:16:42.379Z,39313.80
2018-12-11T05:18:47.544Z,39335.05
2018-12-11T05:20:53.443Z,39293.52
2018-12-11T05:22:58.841Z,39283.86
2018-12-11T05:25:05.166Z,39283.86
2018-12-11T05:27:10.039Z,39283.86
2018-12-11T05:29:15.169Z,39317.66
2018-12-11T05:31:20.215Z,39285.79
2018-12-11T05:33:26.256Z,39277.10
2018-12-11T05:35:31.400Z,39321.53
2018-12-11T05:37:38.062Z,39282.89
2018-12-11T05:39:43.017Z,39330.22
2018-12-11T05:41:48.525Z,39305.11
2018-12-11T05:43:53.620Z,39328.29
2018-12-11T05:45:59.995Z,39329.25
2018-12-11T05:48:06.856Z,39336.98
2018-12-11T05:50:14.015Z,39330.22
2018-12-11T05:52:20.278Z,39315.73
2018-12-11T05:54:25.800Z,39339.87
2018-12-11T05:56:32.248Z,39340.84
2018-12-11T05:58:38.050Z,39322.49
2018-12-11T06:00:42.923Z,39321.53
2018-12-11T06:02:49.177Z,39329.25
2018-12-11T06:04:54.690Z,39322.49
2018-12-11T06:07:00.103Z,39325.39
2018-12-11T06:09:08.538Z,39339.87
2018-12-11T06:11:14.025Z,39339.87
2018-12-11T06:13:19.661Z,39320.56
2018-12-11T06:15:25.550Z,39326.36
2018-12-11T06:17:30.537Z,39321.53
2018-12-11T06:19:36.359Z,39342.77
2018-12-11T06:21:42.768Z,39338.91
2018-12-11T06:23:49.026Z,39314.77
2018-12-11T06:25:54.155Z,39335.05
2018-12-11T06:28:00.055Z,39346.64
2018-12-11T06:30:06.063Z,39329.25
2018-12-11T06:32:12.202Z,39329.25
2018-12-11T06:34:17.230Z,39302.21
2018-12-11T06:36:22.346Z,39321.53
2018-12-11T06:38:27.701Z,39328.29
2018-12-11T06:40:33.166Z,39326.36
2018-12-11T06:42:38.042Z,39329.25
2018-12-11T06:44:44.843Z,39298.35
2018-12-11T06:46:52.054Z,39315.73
2018-12-11T06:48:57.148Z,39347.60
2018-12-11T06:51:02.725Z,39344.71
2018-12-11T06:53:07.674Z,39331.18
2018-12-11T06:55:13.032Z,39335.05
2018-12-11T06:57:18.619Z,39350.50
2018-12-11T06:59:25.163Z,39347.60
2018-12-11T07:01:30.294Z,39349.54
2018-12-11T07:03:37.397Z,39341.81
2018-12-11T07:05:42.466Z,39347.60
2018-12-11T07:07:47.529Z,39333.12
2018-12-11T07:09:52.620Z,39331.18
2018-12-11T07:11:59.256Z,39319.59
2018-12-11T07:14:04.173Z,39319.59
2018-12-11T07:16:10.974Z,39312.84
2018-12-11T07:18:16.017Z,39354.36
2018-12-11T07:20:21.089Z,39325.39
2018-12-11T07:22:26.472Z,39311.87
2018-12-11T07:24:31.803Z,39421.00
2018-12-11T07:26:37.069Z,39308.01
2018-12-11T07:28:41.821Z,39304.14
2018-12-11T07:30:47.161Z,39319.59
2018-12-11T07:32:52.005Z,39318.63
2018-12-11T07:34:57.846Z,39321.53
2018-12-11T07:37:02.742Z,39319.59
2018-12-11T07:39:08.423Z,39295.45
2018-12-11T07:41:13.439Z,39283.86
2018-12-11T07:43:19.370Z,39275.17
2018-12-11T07:45:25.035Z,39277.10
2018-12-11T07:47:30.099Z,39273.24
2018-12-11T07:49:35.785Z,39276.14
2018-12-11T07:51:40.658Z,39268.41
2018-12-11T07:53:45.722Z,39257.79
2018-12-11T07:55:51.187Z,39279.04
2018-12-11T07:57:56.014Z,39256.82
2018-12-11T08:00:01.041Z,39270.34
2018-12-11T08:02:07.205Z,39256.82
2018-12-11T08:04:12.045Z,39279.04
2018-12-11T08:06:16.848Z,39278.07
2018-12-11T08:08:23.719Z,39244.27
2018-12-11T08:10:29.472Z,39245.23
2018-12-11T08:12:34.292Z,39256.82
2018-12-11T08:14:39.487Z,39260.68
2018-12-11T08:16:44.835Z,39251.99
2018-12-11T08:18:50.009Z,39254.89
2018-12-11T08:20:55.860Z,39269.37
2018-12-11T08:23:00.969Z,39289.66
2018-12-11T08:25:05.890Z,39281.93
2018-12-11T08:27:11.685Z,39261.65
2018-12-11T08:29:16.635Z,39275.17
2018-12-11T08:31:21.648Z,39284.83
2018-12-11T08:33:28.497Z,39274.20
2018-12-11T08:35:33.928Z,39312.84
2018-12-11T08:37:40.631Z,39289.66
2018-12-11T08:39:45.490Z,39286.76
2018-12-11T08:41:50.665Z,39289.66
2018-12-11T08:43:55.785Z,39283.86
2018-12-11T08:46:00.649Z,39338.91
2018-12-11T08:48:05.814Z,39290.62
2018-12-11T08:50:11.375Z,39320.56
2018-12-11T08:52:17.152Z,39333.12
2018-12-11T08:54:22.029Z,39328.29
2018-12-11T08:56:27.222Z,39328.29
2018-12-11T08:58:32.880Z,39319.59
2018-12-11T09:00:37.979Z,39320.56
2018-12-11T09:02:43.430Z,39339.87
2018-12-11T09:04:49.121Z,39355.33
2018-12-11T09:06:54.776Z,39316.70
2018-12-11T09:09:01.298Z,39330.22
2018-12-11T09:11:06.307Z,39302.21
2018-12-11T09:13:11.281Z,39330.22
2018-12-11T09:15:16.136Z,39329.25
2018-12-11T09:17:21.346Z,39345.67
2018-12-11T09:19:27.389Z,39367.88
2018-12-11T09:21:32.192Z,39376.57
2018-12-11T09:23:37.086Z,39349.54
2018-12-11T09:25:43.469Z,39321.53
2018-12-11T09:27:48.657Z,39343.74
2018-12-11T09:29:54.409Z,39343.74
2018-12-11T09:34:22.536Z,39340.84
2018-12-11T09:36:28.279Z,39323.46
2018-12-11T09:38:33.223Z,39334.08
2018-12-11T09:40:38.407Z,39338.91
2018-12-11T09:42:43.645Z,39315.73
2018-12-11T09:44:49.867Z,39298.35
2018-12-11T09:46:54.755Z,39331.18
2018-12-11T09:48:59.673Z,39356.29
2018-12-11T09:51:05.341Z,39321.53
2018-12-11T09:53:11.024Z,39336.98
2018-12-11T09:55:15.850Z,39377.54
2018-12-11T09:57:21.491Z,39301.25
2018-12-11T09:59:27.792Z,39318.63
2018-12-11T10:01:34.860Z,39360.16
2018-12-11T10:03:40.359Z,39362.09
2018-12-11T10:05:45.936Z,39364.02
2018-12-11T10:07:51.352Z,39374.64
2018-12-11T10:09:56.146Z,39398.79
2018-12-11T10:12:01.076Z,39389.13
2018-12-11T10:14:07.148Z,39418.11
2018-12-11T10:16:12.045Z,39452.87
2018-12-11T10:18:17.040Z,39452.87
2018-12-11T10:20:22.258Z,39449.01
2018-12-11T10:22:28.177Z,39412.31
2018-12-11T10:24:34.484Z,39458.67
2018-12-11T10:26:41.234Z,39447.08
2018-12-11T10:28:46.568Z,39458.67
2018-12-11T10:30:51.541Z,39417.14
2018-12-11T10:32:56.987Z,39487.64
2018-12-11T10:35:02.375Z,39470.26
2018-12-11T10:37:07.410Z,39434.52
2018-12-11T10:39:12.551Z,39451.91
2018-12-11T10:41:18.298Z,39467.36
2018-12-11T10:43:23.345Z,39465.43
2018-12-11T10:47:32.327Z,39440.32
2018-12-11T10:49:37.859Z,39442.25
2018-12-11T10:51:43.007Z,39454.80
2018-12-11T10:53:48.915Z,39481.85
2018-12-11T10:55:55.022Z,39489.57
2018-12-11T10:58:00.089Z,39516.62
2018-12-11T11:00:06.010Z,39544.62
2018-12-11T11:02:16.757Z,39498.27
2018-12-11T11:04:25.158Z,39530.14
2018-12-11T11:06:30.513Z,39536.90
2018-12-11T11:10:44.646Z,39492.47
2018-12-11T11:12:50.462Z,39519.51
2018-12-11T11:14:55.788Z,39491.50
2018-12-11T11:17:00.797Z,39507.92
2018-12-11T11:19:06.382Z,39513.72
2018-12-11T11:21:11.380Z,39477.02
2018-12-11T11:23:18.321Z,39484.75
2018-12-11T11:25:23.348Z,39490.54
2018-12-11T11:27:28.536Z,39489.57
2018-12-11T11:29:34.928Z,39513.72
2018-12-11T11:31:40.581Z,39507.92
2018-12-11T11:33:56.676Z,39487.64
2018-12-11T11:36:00.630Z,39520.48
2018-12-11T11:38:06.165Z,39487.64
2018-12-11T11:40:11.218Z,39521.45
2018-12-11T11:42:17.919Z,39549.45
2018-12-11T11:44:24.157Z,39560.08
2018-12-11T11:46:29.049Z,39599.68
2018-12-11T11:48:34.115Z,39574.57
2018-12-11T11:50:39.327Z,39615.13
2018-12-11T11:52:44.447Z,39599.68
2018-12-11T11:54:49.279Z,39638.31
2018-12-11T11:56:54.796Z,39030.84
2018-12-11T11:59:00.769Z,39623.82
2018-12-11T12:01:06.294Z,39607.40
2018-12-11T12:03:11.428Z,39586.16
2018-12-11T12:05:16.428Z,39606.44
2018-12-11T12:07:21.463Z,39477.98
2018-12-11T12:09:27.187Z,39595.81
2018-12-11T12:11:32.186Z,39607.40
2018-12-11T12:13:37.542Z,39607.40
2018-12-11T12:15:42.550Z,39619.96
2018-12-11T12:17:48.493Z,39606.44
2018-12-11T12:19:53.858Z,39584.22
2018-12-11T12:21:58.965Z,39544.62
2018-12-11T12:24:03.806Z,39573.60
2018-12-11T12:26:08.703Z,39575.53
2018-12-11T12:28:14.511Z,39620.93
2018-12-11T12:30:20.496Z,39651.83
2018-12-11T12:32:25.878Z,39636.38
2018-12-11T12:34:30.818Z,39712.68
2018-12-11T12:36:35.921Z,39675.02
2018-12-11T12:38:41.596Z,39629.62
2018-12-11T12:40:46.820Z,39630.58
2018-12-11T12:42:51.728Z,39623.82
2018-12-11T12:44:57.247Z,39652.80
2018-12-11T12:47:04.017Z,39635.41
2018-12-11T12:49:10.634Z,39648.94
2018-12-11T12:51:15.528Z,39645.07
2018-12-11T12:53:21.745Z,39678.88
2018-12-11T12:55:27.606Z,39661.49
2018-12-11T12:57:32.636Z,39679.84
2018-12-11T12:59:37.921Z,39698.20
2018-12-11T13:01:42.738Z,39653.77
2018-12-11T13:06:18.981Z,39685.64
2018-12-11T13:08:24.298Z,39703.02
2018-12-11T13:10:29.142Z,39639.28
2018-12-11T13:12:35.021Z,39645.07
2018-12-11T13:14:41.266Z,39634.45
2018-12-11T13:16:46.191Z,39614.16
2018-12-11T13:18:51.165Z,39633.48
2018-12-11T13:20:56.055Z,39624.79
2018-12-11T13:23:00.926Z,39658.59
2018-12-11T13:25:07.228Z,39643.14
2018-12-11T13:27:12.564Z,39636.38
2018-12-11T13:29:17.472Z,39627.69
2018-12-11T13:31:24.172Z,39610.30
2018-12-11T13:33:29.048Z,39652.80
2018-12-11T13:35:33.960Z,39659.56
2018-12-11T13:37:40.066Z,39619.96
2018-12-11T13:39:46.715Z,39630.58
2018-12-11T13:41:51.670Z,39659.56
2018-12-11T13:43:57.167Z,39644.11
2018-12-11T13:46:02.977Z,39653.77
2018-12-11T13:48:08.014Z,39639.28
2018-12-11T13:50:12.983Z,39651.83
2018-12-11T13:52:17.851Z,39654.73
2018-12-11T13:54:22.674Z,39673.08
2018-12-11T13:56:27.548Z,39646.04
2018-12-11T13:58:32.404Z,39672.12
2018-12-11T14:00:37.358Z,39670.18
2018-12-11T14:02:42.587Z,39641.21
2018-12-11T14:04:48.002Z,39638.31
2018-12-11T14:06:52.855Z,39659.56
2018-12-11T14:09:00.048Z,39631.55
2018-12-11T14:11:05.813Z,39629.62
2018-12-11T14:13:10.746Z,39616.10
2018-12-11T14:15:15.765Z,39647.00
2018-12-11T14:17:20.757Z,39625.75
2018-12-11T14:19:25.670Z,39615.13
2018-12-11T14:21:31.058Z,39612.23
2018-12-11T14:23:36.564Z,39632.52
2018-12-11T14:25:41.906Z,39629.62
2018-12-11T14:27:47.753Z,39615.13
2018-12-11T14:29:52.691Z,39632.52
2018-12-11T14:31:58.423Z,39621.89
2018-12-11T14:34:05.456Z,39617.06
2018-12-11T14:36:10.461Z,39649.90
2018-12-11T14:38:16.181Z,39619.96
2018-12-11T14:40:21.393Z,39599.68
2018-12-11T14:42:28.190Z,39613.20
2018-12-11T14:44:33.496Z,39664.39
2018-12-11T14:46:38.702Z,39606.44
2018-12-11T14:48:44.288Z,39646.04
2018-12-11T14:50:50.268Z,39588.09
2018-12-11T14:52:55.395Z,39606.44
2018-12-11T14:55:01.762Z,39613.20
2018-12-11T14:57:06.918Z,39599.68
2018-12-11T14:59:11.968Z,39590.02
2018-12-11T15:01:16.998Z,39579.39
2018-12-11T15:03:22.010Z,39587.12
2018-12-11T15:05:27.000Z,39615.13
2018-12-11T15:07:32.007Z,39610.30
2018-12-11T15:09:43.718Z,39590.98
2018-12-11T15:11:48.707Z,39546.55
2018-12-11T15:13:53.589Z,39603.54
2018-12-11T15:15:58.516Z,39590.98
2018-12-11T15:18:03.572Z,39606.44
2018-12-11T15:20:10.881Z,39561.04
2018-12-11T15:22:16.874Z,39597.75
2018-12-11T15:24:21.850Z,39580.36
2018-12-11T15:26:27.745Z,39590.98
2018-12-11T15:28:32.534Z,39589.05
2018-12-11T15:30:39.288Z,39578.43
2018-12-11T15:32:44.004Z,39596.78
2018-12-11T15:34:48.920Z,39619.96
2018-12-11T15:36:54.665Z,39604.51
2018-12-11T15:38:59.434Z,39628.65
2018-12-11T15:41:04.356Z,39621.89
2018-12-11T15:43:09.820Z,39609.34
2018-12-11T15:45:14.843Z,39594.85
2018-12-11T15:47:20.266Z,39622.86
2018-12-11T15:49:25.017Z,39602.57
2018-12-11T15:51:30.571Z,39546.55
2018-12-11T15:53:35.463Z,39534.00
2018-12-11T15:55:40.606Z,39562.01
2018-12-11T15:57:45.633Z,39528.21
2018-12-11T15:59:51.745Z,39510.82
2018-12-11T16:01:57.168Z,39576.50
2018-12-11T16:04:02.046Z,39534.00
2018-12-11T16:06:07.883Z,39558.14
2018-12-11T16:08:12.688Z,39552.35
2018-12-11T16:10:18.664Z,39550.42
2018-12-11T16:12:23.384Z,39570.70
2018-12-11T16:14:28.193Z,39542.69
2018-12-11T16:16:33.767Z,39546.55
2018-12-11T16:18:38.616Z,39526.27
2018-12-11T16:20:43.414Z,39522.41
2018-12-11T16:22:48.798Z,39551.39
2018-12-11T16:24:53.874Z,39584.22
2018-12-11T16:26:59.590Z,39583.26
2018-12-11T16:29:05.819Z,39531.10
2018-12-11T16:31:10.940Z,39546.55
2018-12-11T16:33:16.730Z,39542.69
2018-12-11T16:35:21.436Z,39511.79
2018-12-11T16:37:27.496Z,39516.62
2018-12-11T16:39:33.527Z,39523.38
2018-12-11T16:41:39.344Z,39528.21
2018-12-11T16:43:44.210Z,39527.24
2018-12-11T16:45:50.648Z,39483.78
2018-12-11T16:47:55.570Z,39519.51
2018-12-11T16:50:00.547Z,39501.16
2018-12-11T16:52:05.469Z,39477.02
2018-12-11T16:54:10.520Z,39491.50
2018-12-11T16:56:16.439Z,39465.43
2018-12-11T16:58:21.594Z,39416.17
2018-12-11T17:00:27.059Z,39441.28
2018-12-11T17:02:31.951Z,39434.52
2018-12-11T17:04:36.921Z,39437.42
2018-12-11T17:06:41.944Z,39420.04
2018-12-11T17:08:46.817Z,39426.80
2018-12-11T17:10:51.613Z,39424.86
2018-12-11T17:12:56.930Z,39421.97
2018-12-11T17:15:04.086Z,39410.38
2018-12-11T17:17:09.900Z,39409.41
2018-12-11T17:19:15.845Z,39413.28
2018-12-11T17:21:20.900Z,39452.87
2018-12-11T17:23:25.632Z,39440.32
2018-12-11T17:25:30.439Z,39442.25
2018-12-11T17:27:36.051Z,39420.04
2018-12-11T17:29:41.096Z,39404.58
2018-12-11T17:31:46.652Z,39422.93
2018-12-11T17:33:51.594Z,39423.90
2018-12-11T17:35:56.405Z,39415.21
2018-12-11T17:38:01.657Z,39414.24
2018-12-11T17:40:07.181Z,39427.76
2018-12-11T17:42:12.109Z,39415.21
2018-12-11T17:44:18.609Z,39442.25
2018-12-11T17:46:23.524Z,39492.47
2018-12-11T17:48:29.375Z,39476.05
2018-12-11T17:50:34.461Z,39439.35
2018-12-11T17:52:43.009Z,39449.98
2018-12-11T17:54:47.978Z,39472.19
2018-12-11T17:56:53.111Z,39457.70
2018-12-11T17:58:58.362Z,39470.26
2018-12-11T18:01:05.426Z,39470.26
2018-12-11T18:03:12.262Z,39467.36
2018-12-11T18:05:17.161Z,39502.13
2018-12-11T18:07:25.556Z,39466.39
2018-12-11T18:09:36.974Z,39461.56
2018-12-11T18:11:43.430Z,39483.78
2018-12-11T18:13:49.325Z,39470.26
2018-12-11T18:15:57.151Z,39455.77
2018-12-11T18:18:02.152Z,39495.37
2018-12-11T18:20:08.312Z,39493.44
2018-12-11T18:22:13.412Z,39513.72
2018-12-11T18:24:19.234Z,39475.09
2018-12-11T18:26:25.385Z,39488.61
2018-12-11T18:28:30.376Z,39507.92
2018-12-11T18:30:36.316Z,39519.51
2018-12-11T18:32:41.288Z,39482.81
2018-12-11T18:37:11.176Z,39508.89
2018-12-11T18:39:16.066Z,39482.81
2018-12-11T18:41:20.843Z,39490.54
2018-12-11T18:43:25.636Z,39485.71
2018-12-11T18:45:30.466Z,39498.27
2018-12-11T18:47:35.731Z,39456.73
2018-12-11T18:49:40.679Z,39483.78
2018-12-11T18:51:46.299Z,39442.25
2018-12-11T18:53:52.258Z,39463.50
2018-12-11T18:55:57.784Z,39441.28
2018-12-11T18:58:04.543Z,39482.81
2018-12-11T19:00:11.790Z,39470.26
2018-12-11T19:02:16.681Z,39441.28
2018-12-11T19:04:22.766Z,39464.46
2018-12-11T19:06:28.637Z,39453.84
2018-12-11T19:08:34.063Z,39455.77
2018-12-11T19:12:57.010Z,39436.45
2018-12-11T19:15:04.815Z,39455.77
2018-12-11T19:17:09.641Z,39466.39
2018-12-11T19:19:16.269Z,39450.94
2018-12-11T19:21:23.059Z,39449.01
2018-12-11T19:23:55.734Z,39477.02
2018-12-11T19:26:01.934Z,38392.59
2018-12-11T19:28:08.965Z,39454.80
2018-12-11T19:30:15.155Z,39466.39
2018-12-11T19:32:20.639Z,39487.64
2018-12-11T19:34:28.141Z,39446.11
2018-12-11T19:36:33.624Z,39476.05
2018-12-11T19:38:40.624Z,39489.57
2018-12-11T19:40:47.448Z,39496.34
2018-12-11T19:42:53.988Z,39472.19
2018-12-11T19:44:59.804Z,39485.71
2018-12-11T19:47:05.587Z,39477.02
2018-12-11T19:49:11.601Z,39496.34
2018-12-11T19:51:16.826Z,39491.50
2018-12-11T19:53:23.415Z,39513.72
2018-12-11T19:55:28.723Z,39504.06
2018-12-11T19:57:38.944Z,39476.05
2018-12-11T19:59:47.924Z,39467.36
2018-12-11T20:02:02.248Z,39496.34
2018-12-11T20:04:08.655Z,39498.27
2018-12-11T20:06:15.738Z,39500.20
2018-12-11T20:08:22.493Z,39561.04
2018-12-11T20:10:30.244Z,39459.63
2018-12-11T20:12:37.385Z,39432.59
2018-12-11T20:14:45.623Z,39449.01
2018-12-11T20:16:51.605Z,39444.18
2018-12-11T20:19:00.358Z,39418.11
2018-12-11T20:21:05.938Z,39419.07
2018-12-11T20:23:12.305Z,39433.56
2018-12-11T20:25:17.512Z,39393.96
2018-12-11T20:27:23.609Z,39411.34
2018-12-11T20:29:29.560Z,39377.54
2018-12-11T20:31:36.244Z,39357.26
2018-12-11T20:33:42.796Z,39372.71
2018-12-11T20:35:49.299Z,39288.69
2018-12-11T20:37:57.782Z,39344.71
2018-12-11T20:40:06.869Z,39373.68
2018-12-11T20:42:14.479Z,39361.12
2018-12-11T20:44:19.607Z,39398.79
2018-12-11T20:46:24.789Z,39347.60
2018-12-11T20:48:30.808Z,39343.74
2018-12-11T20:50:36.765Z,39335.05
2018-12-11T20:52:43.273Z,39325.39
2018-12-11T20:54:49.347Z,39292.55
2018-12-11T20:56:55.958Z,39285.79
2018-12-11T20:59:01.536Z,39282.89
2018-12-11T21:01:10.664Z,39356.29
2018-12-11T21:03:16.048Z,39338.91
2018-12-11T21:05:23.527Z,39374.64
2018-12-11T21:07:30.361Z,39331.18
2018-12-11T21:09:41.468Z,39316.70
2018-12-11T21:11:53.484Z,39313.80
2018-12-11T21:14:00.366Z,39309.94
2018-12-11T21:16:10.949Z,39305.11
2018-12-11T21:18:17.335Z,39338.91
2018-12-11T21:20:25.987Z,39332.15
2018-12-11T21:22:33.973Z,39347.60
2018-12-11T21:24:47.795Z,39358.23
2018-12-11T21:26:58.104Z,39352.43
2018-12-11T21:29:07.132Z,39378.51
2018-12-11T21:31:13.601Z,39387.20
2018-12-11T21:33:23.201Z,39384.30
2018-12-11T21:35:30.399Z,39383.34
2018-12-11T21:37:43.129Z,39387.20
2018-12-11T21:39:48.778Z,39358.23
2018-12-11T21:41:53.913Z,39368.85
2018-12-11T21:43:59.308Z,39400.72
2018-12-11T21:46:05.607Z,39354.36
2018-12-11T21:48:12.326Z,39386.23
2018-12-11T21:50:29.080Z,39331.18
2018-12-11T21:52:38.290Z,39337.95
2018-12-11T21:54:43.792Z,39311.87
2018-12-11T21:56:50.664Z,39333.12
2018-12-11T21:58:56.939Z,39320.56
2018-12-11T22:01:03.365Z,39414.24
2018-12-11T22:05:40.409Z,39294.48
2018-12-11T22:07:45.449Z,39280.00
2018-12-11T22:09:51.535Z,39271.31
2018-12-11T22:11:58.394Z,39284.83
2018-12-11T22:14:03.676Z,39309.94
2018-12-11T22:16:08.781Z,39336.98
2018-12-11T22:18:14.227Z,39365.95
2018-12-11T22:20:20.683Z,39322.49
2018-12-11T22:22:26.895Z,39348.57
2018-12-11T22:24:32.692Z,39324.42
2018-12-11T22:26:38.259Z,39334.08
2018-12-11T22:28:43.211Z,39308.01
2018-12-11T22:30:47.975Z,39315.73
2018-12-11T22:32:53.043Z,39337.95
2018-12-11T22:34:57.857Z,39314.77
2018-12-11T22:37:03.623Z,39327.32
2018-12-11T22:39:09.810Z,39289.66
2018-12-11T22:41:14.687Z,39260.68
2018-12-11T22:43:20.596Z,39254.89
2018-12-11T22:45:25.377Z,39288.69
2018-12-11T22:47:30.374Z,39337.95
2018-12-11T22:49:37.185Z,39280.96
2018-12-11T22:51:42.577Z,39288.69
2018-12-11T22:53:47.954Z,39288.69
2018-12-11T22:55:53.646Z,39300.28
2018-12-11T22:57:58.389Z,39303.18
2018-12-11T23:00:03.197Z,39255.86
2018-12-11T23:02:08.862Z,39236.54
2018-12-11T23:04:14.283Z,39242.34
2018-12-11T23:06:19.357Z,39249.09
2018-12-11T23:08:24.675Z,39224.95
2018-12-11T23:10:29.594Z,39264.55
2018-12-11T23:12:35.969Z,39225.92
2018-12-11T23:14:41.052Z,39253.93
2018-12-11T23:16:46.897Z,39223.02
2018-12-11T23:18:52.113Z,39225.92
2018-12-11T23:20:57.753Z,39209.50
2018-12-11T23:23:03.496Z,39177.63
2018-12-11T23:25:09.590Z,39167.01
2018-12-11T23:27:15.199Z,39171.84
2018-12-11T23:29:20.166Z,39176.67
2018-12-11T23:31:26.413Z,39143.83
2018-12-11T23:33:31.734Z,39150.59
2018-12-11T23:35:36.682Z,39120.65
2018-12-11T23:37:41.528Z,39106.17
2018-12-11T23:39:46.668Z,39132.24
2018-12-11T23:41:51.618Z,39078.16
2018-12-11T23:43:56.557Z,39099.41
2018-12-11T23:46:01.407Z,39108.10
2018-12-11T23:48:07.504Z,39110.03
2018-12-11T23:50:12.771Z,39132.24
2018-12-11T23:52:17.611Z,39138.04
2018-12-11T23:54:22.404Z,39142.87
2018-12-11T23:56:28.194Z,39156.39
2018-12-11T23:58:33.032Z,39123.55
